| time (UTC) | temp F | wind direction | speed MPH | gust MPH | rain 1hr in | rain 24hr in | rain mn in | humidity % | barometer mb |
| 20260508142845 | 53 | 11 | 10.0 | 16.0 | 0.00 | 0.00 | 0.00 | 87 | 1000.2 |
| 20260508141838 | 53 | 12 | 10.0 | 16.0 | 0.00 | 0.00 | 0.00 | 87 | 1000.2 |
| 20260508141337 | 53 | 12 | 12.0 | 15.0 | 0.00 | 0.00 | 0.00 | 87 | 1000.2 |
| 20260508140342 | 53 | 11 | 13.0 | 17.0 | 0.00 | 0.00 | 0.00 | 87 | 1000.2 |
| 20260508135339 | 53 | 12 | 13.0 | 17.0 | 0.00 | 0.00 | 0.00 | 87 | 1000.2 |
| 20260508134348 | 53 | 12 | 10.0 | 14.0 | 0.00 | 0.00 | 0.00 | 86 | 1000.2 |
| 20260508133831 | 53 | 12 | 10.0 | 15.0 | 0.00 | 0.00 | 0.00 | 86 | 1000.2 |
| 20260508132859 | 53 | 11 | 11.0 | 15.0 | 0.00 | 0.00 | 0.00 | 87 | 1000.2 |
| 20260508132340 | 53 | 11 | 7.0 | 14.0 | 0.00 | 0.00 | 0.00 | 88 | 1000.2 |
| 20260508131836 | 53 | 11 | 11.0 | 16.0 | 0.00 | 0.00 | 0.00 | 88 | 1000.2 |
| 20260508130846 | 53 | 11 | 9.0 | 12.0 | 0.00 | 0.00 | 0.00 | 88 | 1000.2 |
| 20260508130333 | 53 | 11 | 9.0 | 12.0 | 0.00 | 0.00 | 0.00 | 88 | 1000.2 |
| 20260508125336 | 53 | 12 | 9.0 | 13.0 | 0.00 | 0.00 | 0.00 | 89 | 1000.2 |
| 20260508124345 | 53 | 11 | 9.0 | 14.0 | 0.00 | 0.00 | 0.00 | 91 | 1000.2 |
| 20260508123350 | 53 | 11 | 11.0 | 14.0 | 0.00 | 0.00 | 0.00 | 93 | 1000.2 |
| 20260508122839 | 52 | 11 | 10.0 | 15.0 | 0.00 | 0.00 | 0.00 | 95 | 1000.2 |
| 20260508122340 | 51 | 11 | 8.0 | 13.0 | 0.00 | 0.00 | 0.00 | 95 | 1000.2 |
| 20260508120847 | 49 | 9 | 1.0 | 4.0 | 0.00 | 0.00 | 0.00 | 94 | 1000.2 |
| 20260508115842 | 49 | 9 | 0.0 | 2.0 | 0.00 | 0.00 | 0.00 | 94 | 1000.2 |
| 20260508115338 | 49 | 9 | 0.0 | 2.0 | 0.00 | 0.00 | 0.00 | 94 | 1000.2 |
| 20260508114352 | 49 | 9 | 0.0 | 0.0 | 0.00 | 0.00 | 0.00 | 94 | 1000.2 |
| 20260508113848 | 49 | 9 | 0.0 | 0.0 | 0.00 | 0.00 | 0.00 | 94 | 1000.2 |
| 20260508113337 | 49 | 9 | 0.0 | 0.0 | 0.00 | 0.00 | 0.00 | 94 | 1000.2 |
| 20260508112835 | 49 | 9 | 0.0 | 0.0 | 0.00 | 0.00 | 0.00 | 94 | 1000.2 |
| 20260508111836 | 49 | 9 | 0.0 | 0.0 | 0.00 | 0.00 | 0.00 | 94 | 1000.2 |
| 20260508110845 | 49 | 9 | 0.0 | 2.0 | 0.00 | 0.00 | 0.00 | 93 | 1000.2 |
| 20260508110338 | 50 | 9 | 1.0 | 2.0 | 0.00 | 0.00 | 0.00 | 93 | 1000.2 |
| 20260508104840 | 50 | 9 | 1.0 | 3.0 | 0.00 | 0.00 | 0.00 | 93 | 1000.2 |
| 20260508104330 | 50 | 9 | 1.0 | 3.0 | 0.00 | 0.00 | 0.00 | 93 | 1000.2 |
| 20260508103339 | 50 | 9 | 1.0 | 2.0 | 0.00 | 0.00 | 0.00 | 93 | 1000.2 |
| 20260508102839 | 50 | 9 | 0.0 | 2.0 | 0.00 | 0.00 | 0.00 | 93 | 1000.2 |
| 20260508101836 | 50 | 9 | 0.0 | 2.0 | 0.00 | 0.00 | 0.00 | 93 | 1000.2 |
| 20260508100848 | 50 | 9 | 0.0 | 2.0 | 0.00 | 0.00 | 0.00 | 93 | 1000.2 |
| 20260508095845 | 50 | 9 | 0.0 | 2.0 | 0.00 | 0.00 | 0.00 | 93 | 1000.2 |
| 20260508094837 | 50 | 9 | 1.0 | 2.0 | 0.00 | 0.00 | 0.00 | 93 | 1000.2 |
| 20260508093833 | 50 | 9 | 1.0 | 4.0 | 0.00 | 0.00 | 0.00 | 92 | 1000.2 |
| 20260508092858 | 50 | 9 | 1.0 | 3.0 | 0.00 | 0.00 | 0.00 | 93 | 1000.2 |
| 20260508092350 | 50 | 9 | 1.0 | 3.0 | 0.00 | 0.00 | 0.00 | 93 | 1000.2 |
| 20260508091333 | 50 | 9 | 1.0 | 4.0 | 0.00 | 0.00 | 0.00 | 93 | 1000.2 |
| 20260508090350 | 50 | 9 | 2.0 | 3.0 | 0.00 | 0.00 | 0.00 | 92 | 1000.2 |
| 20260508085847 | 50 | 9 | 1.0 | 4.0 | 0.00 | 0.00 | 0.00 | 93 | 1000.2 |
| 20260508084850 | 50 | 17 | 0.0 | 2.0 | 0.00 | 0.00 | 0.00 | 93 | 1000.2 |
| 20260508083852 | 50 | 17 | 0.0 | 2.0 | 0.00 | 0.00 | 0.00 | 92 | 1000.2 |
| 20260508083345 | 51 | 17 | 1.0 | 2.0 | 0.00 | 0.00 | 0.00 | 92 | 1000.2 |
| 20260508082347 | 51 | 16 | 0.0 | 1.0 | 0.00 | 0.00 | 0.00 | 92 | 1000.2 |
| 20260508081837 | 51 | 16 | 0.0 | 1.0 | 0.00 | 0.00 | 0.00 | 93 | 1000.2 |
| 20260508080852 | 51 | 17 | 1.0 | 3.0 | 0.00 | 0.00 | 0.00 | 92 | 1000.2 |
| 20260508080348 | 51 | 17 | 0.0 | 3.0 | 0.00 | 0.00 | 0.00 | 92 | 1000.2 |
| 20260508075831 | 51 | 17 | 0.0 | 3.0 | 0.00 | 0.00 | 0.00 | 91 | 1000.2 |
| 20260508074847 | 51 | 17 | 0.0 | 2.0 | 0.00 | 0.00 | 0.00 | 92 | 1000.2 |
| 20260508074346 | 51 | 17 | 0.0 | 2.0 | 0.00 | 0.00 | 0.00 | 92 | 1000.2 |
| 20260508073841 | 51 | 17 | 0.0 | 2.0 | 0.00 | 0.00 | 0.00 | 92 | 1000.2 |
| 20260508072857 | 51 | 17 | 0.0 | 0.0 | 0.00 | 0.00 | 0.00 | 91 | 1000.2 |
| 20260508071848 | 51 | 17 | 0.0 | 2.0 | 0.00 | 0.00 | 0.00 | 91 | 1000.2 |
| 20260508071337 | 51 | 17 | 0.0 | 2.0 | 0.00 | 0.00 | 0.00 | 91 | 1000.2 |
| 20260508070346 | 51 | 17 | 0.0 | 2.0 | 0.00 | 0.00 | 0.00 | 92 | 1000.2 |
| 20260508065335 | 51 | 17 | 0.0 | 2.0 | 0.00 | 0.00 | 0.00 | 91 | 1000.2 |
| 20260508064345 | 51 | 17 | 1.0 | 2.0 | 0.00 | 0.00 | 0.00 | 91 | 1000.2 |
| 20260508063836 | 51 | 17 | 0.0 | 2.0 | 0.00 | 0.00 | 0.00 | 91 | 1000.2 |
| 20260508062842 | 52 | 17 | 0.0 | 2.0 | 0.00 | 0.00 | 0.00 | 91 | 1000.2 |
| 20260508061845 | 52 | 17 | 0.0 | 1.0 | 0.00 | 0.00 | 0.00 | 90 | 1000.2 |
| 20260508061337 | 52 | 16 | 0.0 | 3.0 | 0.00 | 0.00 | 0.00 | 90 | 1000.2 |
| 20260508060349 | 53 | 17 | 1.0 | 3.0 | 0.00 | 0.00 | 0.00 | 91 | 1000.2 |
| 20260508055351 | 52 | 15 | 0.0 | 2.0 | 0.00 | 0.00 | 0.00 | 90 | 1000.2 |
| 20260508054345 | 53 | 15 | 1.0 | 2.0 | 0.00 | 0.00 | 0.00 | 89 | 1000.2 |
| 20260508053843 | 53 | 15 | 0.0 | 1.0 | 0.00 | 0.00 | 0.00 | 89 | 1000.2 |
| 20260508052856 | 53 | 15 | 0.0 | 2.0 | 0.00 | 0.00 | 0.00 | 88 | 1000.2 |
| 20260508052342 | 53 | 15 | 1.0 | 3.0 | 0.00 | 0.00 | 0.00 | 88 | 1000.2 |
| 20260508050849 | 54 | 15 | 0.0 | 0.0 | 0.00 | 0.00 | 0.00 | 88 | 1000.2 |
| 20260508050347 | 54 | 15 | 0.0 | 1.0 | 0.00 | 0.00 | 0.00 | 87 | 1000.2 |
| 20260508045349 | 54 | 15 | 1.0 | 2.0 | 0.00 | 0.00 | 0.00 | 86 | 1000.2 |
| 20260508044844 | 55 | 15 | 0.0 | 2.0 | 0.00 | 0.00 | 0.00 | 86 | 1000.2 |
| 20260508043953 | 55 | 15 | 1.0 | 2.0 | 0.00 | 0.00 | 0.00 | 86 | 1000.2 |
| 20260508042856 | 55 | 15 | 2.0 | 3.0 | 0.00 | 0.00 | 0.00 | 85 | 1000.2 |
| 20260508042348 | 55 | 15 | 0.0 | 2.0 | 0.00 | 0.00 | 0.00 | 85 | 1000.2 |
| 20260508041401 | 56 | 15 | 1.0 | 2.0 | 0.00 | 0.00 | 0.00 | 83 | 1000.2 |
| 20260508040353 | 56 | 17 | 1.0 | 3.0 | 0.00 | 0.00 | 0.00 | 82 | 1000.2 |
| 20260508035359 | 57 | 17 | 0.0 | 0.0 | 0.00 | 0.00 | 0.00 | 81 | 1000.2 |
| 20260508034850 | 57 | 18 | 0.0 | 0.0 | 0.00 | 0.00 | 0.00 | 81 | 1000.2 |
| 20260508033858 | 58 | 217 | 0.0 | 1.0 | 0.00 | 0.00 | 0.00 | 80 | 1000.2 |
| 20260508032909 | 59 | 216 | 0.0 | 0.0 | 0.00 | 0.00 | 0.00 | 78 | 1000.2 |
| 20260508032352 | 59 | 216 | 0.0 | 2.0 | 0.00 | 0.00 | 0.00 | 76 | 1000.2 |
| 20260508031847 | 60 | 216 | 0.0 | 2.0 | 0.00 | 0.00 | 0.00 | 76 | 1000.2 |
| 20260508031341 | 60 | 216 | 0.0 | 2.0 | 0.00 | 0.00 | 0.00 | 75 | 1000.2 |
| 20260508030357 | 61 | 216 | 0.0 | 0.0 | 0.00 | 0.00 | 0.00 | 74 | 1000.2 |
| 20260508025856 | 61 | 216 | 0.0 | 2.0 | 0.00 | 0.00 | 0.00 | 72 | 1000.2 |
| 20260508025353 | 61 | 216 | 0.0 | 2.0 | 0.00 | 0.00 | 0.00 | 72 | 1000.2 |
| 20260508024849 | 62 | 216 | 0.0 | 2.0 | 0.00 | 0.00 | 0.00 | 73 | 1000.2 |
| 20260508024340 | 62 | 216 | 0.0 | 2.0 | 0.00 | 0.00 | 0.00 | 70 | 1000.2 |
| 20260508023342 | 62 | 216 | 0.0 | 0.0 | 0.00 | 0.00 | 0.00 | 70 | 1000.2 |
| 20260508022530 | 62 | 216 | 0.0 | 2.0 | 0.00 | 0.00 | 0.00 | 70 | 1000.2 |
| 20260508021840 | 62 | 216 | 0.0 | 2.0 | 0.00 | 0.00 | 0.00 | 70 | 1000.2 |
| 20260508021337 | 62 | 216 | 0.0 | 1.0 | 0.00 | 0.00 | 0.00 | 67 | 1000.2 |
| 20260508020344 | 62 | 216 | 0.0 | 2.0 | 0.00 | 0.00 | 0.00 | 66 | 1000.2 |
| 20260508015359 | 63 | 216 | 2.0 | 3.0 | 0.00 | 0.00 | 0.00 | 70 | 1000.2 |
| 20260508014353 | 62 | 216 | 0.0 | 3.0 | 0.00 | 0.00 | 0.00 | 67 | 1000.2 |
| 20260508013848 | 62 | 216 | 0.0 | 3.0 | 0.00 | 0.00 | 0.00 | 69 | 1000.2 |
| 20260508012857 | 62 | 216 | 0.0 | 0.0 | 0.00 | 0.00 | 0.00 | 70 | 1000.2 |
| 20260508012355 | 62 | 216 | 0.0 | 1.0 | 0.00 | 0.00 | 0.00 | 68 | 1000.2 |
| 20260508011844 | 62 | 216 | 0.0 | 2.0 | 0.00 | 0.00 | 0.00 | 69 | 1000.2 |
| 20260508010858 | 62 | 216 | 0.0 | 1.0 | 0.00 | 0.00 | 0.00 | 68 | 1000.2 |
| 20260508005846 | 62 | 216 | 0.0 | 2.0 | 0.00 | 0.00 | 0.00 | 70 | 1000.2 |
| 20260508004856 | 62 | 216 | 0.0 | 1.0 | 0.00 | 0.00 | 0.00 | 71 | 1000.2 |
| 20260508004351 | 62 | 216 | 0.0 | 0.0 | 0.00 | 0.00 | 0.00 | 69 | 1000.2 |
| 20260508003850 | 62 | 216 | 0.0 | 0.0 | 0.00 | 0.00 | 0.00 | 68 | 1000.2 |
| 20260508002854 | 62 | 216 | 0.0 | 2.0 | 0.00 | 0.00 | 0.00 | 69 | 1000.2 |
| 20260508002345 | 62 | 216 | 0.0 | 0.0 | 0.00 | 0.00 | 0.00 | 68 | 1000.2 |
| 20260508001843 | 62 | 216 | 0.0 | 1.0 | 0.00 | 0.00 | 0.00 | 69 | 1000.2 |
| 20260508000856 | 62 | 216 | 0.0 | 3.0 | 0.00 | 0.00 | 0.00 | 71 | 1000.2 |
| 20260507235853 | 62 | 229 | 1.0 | 3.0 | 0.00 | 0.00 | 0.00 | 72 | 1000.2 |
| 20260507234857 | 62 | 241 | 1.0 | 3.0 | 0.00 | 0.00 | 0.00 | 72 | 1000.2 |
| 20260507234352 | 62 | 241 | 1.0 | 3.0 | 0.00 | 0.00 | 0.00 | 71 | 1000.2 |
| 20260507233841 | 61 | 242 | 0.0 | 2.0 | 0.00 | 0.00 | 0.00 | 70 | 1000.2 |
| 20260507232857 | 62 | 242 | 1.0 | 2.0 | 0.00 | 0.00 | 0.00 | 70 | 1000.2 |
| 20260507232353 | 62 | 243 | 0.0 | 2.0 | 0.00 | 0.00 | 0.00 | 69 | 1000.2 |
| 20260507231845 | 61 | 218 | 0.0 | 2.0 | 0.00 | 0.00 | 0.00 | 71 | 1000.2 |
| 20260507230856 | 61 | 218 | 0.0 | 2.0 | 0.00 | 0.00 | 0.00 | 71 | 1000.2 |
| 20260507225857 | 60 | 218 | 0.0 | 2.0 | 0.00 | 0.00 | 0.00 | 73 | 1000.2 |
| 20260507225353 | 60 | 218 | 0.0 | 3.0 | 0.00 | 0.00 | 0.00 | 72 | 1000.2 |
| 20260507224848 | 60 | 218 | 0.0 | 4.0 | 0.00 | 0.00 | 0.00 | 72 | 1000.2 |
| 20260507224343 | 60 | 256 | 0.0 | 4.0 | 0.00 | 0.00 | 0.00 | 72 | 1000.2 |
| 20260507223834 | 60 | 257 | 2.0 | 4.0 | 0.00 | 0.00 | 0.00 | 72 | 1000.2 |
| 20260507222859 | 60 | 192 | 2.0 | 5.0 | 0.00 | 0.00 | 0.00 | 73 | 1000.2 |
| 20260507222338 | 60 | 192 | 2.0 | 4.0 | 0.00 | 0.00 | 0.00 | 74 | 1000.2 |
| 20260507221359 | 60 | 192 | 2.0 | 4.0 | 0.00 | 0.00 | 0.00 | 75 | 1000.2 |
| 20260507220857 | 60 | 192 | 1.0 | 3.0 | 0.00 | 0.00 | 0.00 | 74 | 1000.2 |
| 20260507215853 | 60 | 192 | 1.0 | 4.0 | 0.00 | 0.00 | 0.00 | 73 | 1000.2 |
| 20260507215339 | 60 | 227 | 2.0 | 3.0 | 0.00 | 0.00 | 0.00 | 74 | 1000.2 |
| 20260507214838 | 60 | 228 | 2.0 | 3.0 | 0.00 | 0.00 | 0.00 | 72 | 1000.2 |
| 20260507213844 | 61 | 256 | 1.0 | 4.0 | 0.00 | 0.00 | 0.00 | 73 | 1000.2 |
| 20260507212858 | 61 | 251 | 1.0 | 3.0 | 0.00 | 0.00 | 0.00 | 72 | 1000.2 |
| 20260507212349 | 59 | 250 | 0.0 | 3.0 | 0.00 | 0.00 | 0.00 | 73 | 1000.2 |
| 20260507211403 | 59 | 219 | 2.0 | 3.0 | 0.00 | 0.00 | 0.00 | 74 | 1000.2 |
| 20260507210353 | 59 | 167 | 0.0 | 3.0 | 0.00 | 0.00 | 0.00 | 74 | 1000.2 |
| 20260507205350 | 59 | 167 | 0.0 | 3.0 | 0.00 | 0.00 | 0.00 | 74 | 1000.2 |
| 20260507204351 | 58 | 167 | 1.0 | 2.0 | 0.00 | 0.00 | 0.00 | 73 | 1000.2 |
| 20260507203356 | 58 | 167 | 0.0 | 1.0 | 0.00 | 0.00 | 0.00 | 74 | 1000.2 |
| 20260507202848 | 58 | 167 | 0.0 | 2.0 | 0.00 | 0.00 | 0.00 | 76 | 1000.2 |
| 20260507202338 | 58 | 167 | 1.0 | 3.0 | 0.00 | 0.00 | 0.00 | 76 | 1000.2 |
| 20260507201354 | 58 | 167 | 2.0 | 3.0 | 0.00 | 0.00 | 0.00 | 77 | 1000.2 |
| 20260507200840 | 58 | 167 | 3.0 | 3.0 | 0.00 | 0.00 | 0.00 | 76 | 1000.2 |
| 20260507195859 | 58 | 167 | 0.0 | 2.0 | 0.00 | 0.00 | 0.00 | 76 | 1000.2 |
| 20260507195333 | 57 | 167 | 0.0 | 0.0 | 0.00 | 0.00 | 0.00 | 74 | 1000.2 |
| 20260507194355 | 57 | 167 | 0.0 | 0.0 | 0.00 | 0.00 | 0.00 | 77 | 1000.2 |
| 20260507193849 | 57 | 167 | 0.0 | 0.0 | 0.00 | 0.00 | 0.00 | 77 | 1000.2 |
| 20260507192852 | 57 | 167 | 0.0 | 2.0 | 0.00 | 0.00 | 0.00 | 77 | 1000.2 |
| 20260507192344 | 57 | 167 | 0.0 | 2.0 | 0.00 | 0.00 | 0.00 | 77 | 1000.2 |
| 20260507191353 | 57 | 167 | 1.0 | 3.0 | 0.00 | 0.00 | 0.00 | 79 | 1000.2 |
| 20260507190644 | 57 | 165 | 2.0 | 3.0 | 0.00 | 0.00 | 0.00 | 75 | 1000.2 |
| 20260507182850 | 56 | 163 | 1.0 | 7.0 | 0.00 | 0.00 | 0.00 | 79 | 1000.2 |
| 20260507182349 | 56 | 163 | 2.0 | 7.0 | 0.00 | 0.00 | 0.00 | 80 | 1000.2 |
| 20260507181355 | 56 | 144 | 1.0 | 3.0 | 0.00 | 0.00 | 0.00 | 79 | 1000.2 |
| 20260507180847 | 56 | 143 | 0.0 | 0.0 | 0.00 | 0.00 | 0.00 | 77 | 1000.2 |
| 20260507175845 | 56 | 143 | 0.0 | 2.0 | 0.00 | 0.00 | 0.00 | 77 | 1000.2 |
| 20260507174846 | 55 | 143 | 1.0 | 3.0 | 0.00 | 0.00 | 0.00 | 79 | 1000.2 |
| 20260507174341 | 55 | 143 | 0.0 | 4.0 | 0.00 | 0.00 | 0.00 | 79 | 1000.2 |
| 20260507173339 | 55 | 143 | 1.0 | 4.0 | 0.00 | 0.00 | 0.00 | 80 | 1000.2 |
| 20260507172353 | 55 | 142 | 2.0 | 7.0 | 0.00 | 0.00 | 0.00 | 80 | 1000.2 |
| 20260507171348 | 55 | 125 | 3.0 | 6.0 | 0.00 | 0.00 | 0.00 | 82 | 1000.2 |
| 20260507170831 | 55 | 143 | 1.0 | 5.0 | 0.00 | 0.00 | 0.00 | 81 | 1000.2 |
| 20260507165849 | 55 | 142 | 1.0 | 7.0 | 0.00 | 0.00 | 0.00 | 82 | 1000.2 |
| 20260507164337 | 54 | 153 | 2.0 | 5.0 | 0.00 | 0.00 | 0.00 | 85 | 1000.2 |
| 20260507163358 | 54 | 155 | 1.0 | 5.0 | 0.00 | 0.00 | 0.00 | 85 | 1000.2 |
| 20260507162837 | 54 | 155 | 1.0 | 5.0 | 0.00 | 0.00 | 0.00 | 85 | 1000.2 |
| 20260507161847 | 54 | 155 | 2.0 | 4.0 | 0.00 | 0.00 | 0.00 | 86 | 1000.2 |
| 20260507160901 | 53 | 178 | 3.0 | 4.0 | 0.00 | 0.00 | 0.00 | 87 | 1000.2 |
| 20260507155851 | 53 | 193 | 1.0 | 4.0 | 0.00 | 0.00 | 0.00 | 88 | 1000.2 |
| 20260507155347 | 53 | 193 | 2.0 | 4.0 | 0.00 | 0.00 | 0.00 | 88 | 1000.2 |
| 20260507154845 | 53 | 192 | 2.0 | 3.0 | 0.00 | 0.00 | 0.00 | 88 | 1000.2 |
| 20260507153854 | 53 | 193 | 0.0 | 3.0 | 0.00 | 0.00 | 0.00 | 87 | 1000.2 |
| 20260507153349 | 53 | 193 | 1.0 | 3.0 | 0.00 | 0.00 | 0.00 | 88 | 1000.2 |
| 20260507152836 | 53 | 157 | 0.0 | 0.0 | 0.00 | 0.00 | 0.00 | 87 | 1000.2 |
| 20260507151856 | 52 | 57 | 0.0 | 0.0 | 0.00 | 0.00 | 0.00 | 88 | 1000.2 |
| 20260507151348 | 52 | 49 | 0.0 | 0.0 | 0.00 | 0.00 | 0.00 | 88 | 1000.2 |
| 20260507150847 | 52 | 46 | 0.0 | 0.0 | 0.00 | 0.00 | 0.00 | 88 | 1000.2 |
| 20260507150336 | 52 | 46 | 0.0 | 0.0 | 0.00 | 0.00 | 0.00 | 88 | 1000.2 |
| 20260507145342 | 52 | 46 | 0.0 | 0.0 | 0.00 | 0.00 | 0.00 | 89 | 1000.2 |
| 20260507144355 | 52 | 9 | 0.0 | 0.0 | 0.00 | 0.00 | 0.00 | 90 | 1000.2 |